sensor_id;sensor_type;location;lat;lon;timestamp;P1;durP1;ratioP1;P2;durP2;ratioP2
56051;SDS011;41919;42.648;23.384;2022-09-21T00:00:14;1.90;;;1.75;;
56051;SDS011;41919;42.648;23.384;2022-09-21T00:02:39;2.65;;;1.70;;
56051;SDS011;41919;42.648;23.384;2022-09-21T00:05:05;1.52;;;1.42;;
56051;SDS011;41919;42.648;23.384;2022-09-21T00:07:30;1.80;;;1.65;;
56051;SDS011;41919;42.648;23.384;2022-09-21T00:09:56;1.83;;;1.73;;
56051;SDS011;41919;42.648;23.384;2022-09-21T00:12:22;1.80;;;1.70;;
56051;SDS011;41919;42.648;23.384;2022-09-21T00:14:48;1.95;;;1.75;;
56051;SDS011;41919;42.648;23.384;2022-09-21T00:17:14;2.10;;;1.90;;
56051;SDS011;41919;42.648;23.384;2022-09-21T00:19:39;2.80;;;2.13;;
56051;SDS011;41919;42.648;23.384;2022-09-21T00:22:05;2.00;;;1.80;;
56051;SDS011;41919;42.648;23.384;2022-09-21T00:24:31;2.40;;;1.90;;
56051;SDS011;41919;42.648;23.384;2022-09-21T00:26:59;2.58;;;1.90;;
56051;SDS011;41919;42.648;23.384;2022-09-21T00:29:24;2.20;;;2.00;;
56051;SDS011;41919;42.648;23.384;2022-09-21T00:31:49;1.73;;;1.63;;
56051;SDS011;41919;42.648;23.384;2022-09-21T00:34:15;2.33;;;2.10;;
56051;SDS011;41919;42.648;23.384;2022-09-21T00:36:40;2.13;;;1.92;;
56051;SDS011;41919;42.648;23.384;2022-09-21T00:39:06;2.05;;;1.95;;
56051;SDS011;41919;42.648;23.384;2022-09-21T00:41:31;2.45;;;2.28;;
56051;SDS011;41919;42.648;23.384;2022-09-21T00:46:45;2.17;;;2.05;;
56051;SDS011;41919;42.648;23.384;2022-09-21T00:49:13;2.10;;;1.92;;
56051;SDS011;41919;42.648;23.384;2022-09-21T00:51:39;2.53;;;2.05;;
56051;SDS011;41919;42.648;23.384;2022-09-21T00:54:07;3.35;;;2.08;;
56051;SDS011;41919;42.648;23.384;2022-09-21T00:56:39;4.28;;;2.40;;
56051;SDS011;41919;42.648;23.384;2022-09-21T00:59:06;2.90;;;2.60;;
56051;SDS011;41919;42.648;23.384;2022-09-21T01:01:33;2.80;;;2.50;;
56051;SDS011;41919;42.648;23.384;2022-09-21T01:04:02;3.30;;;2.92;;
56051;SDS011;41919;42.648;23.384;2022-09-21T01:06:29;3.05;;;2.45;;
56051;SDS011;41919;42.648;23.384;2022-09-21T01:08:58;4.00;;;2.85;;
56051;SDS011;41919;42.648;23.384;2022-09-21T01:19:00;2.78;;;2.40;;
56051;SDS011;41919;42.648;23.384;2022-09-21T01:24:57;4.47;;;3.25;;
56051;SDS011;41919;42.648;23.384;2022-09-21T01:30:17;6.30;;;3.72;;
56051;SDS011;41919;42.648;23.384;2022-09-21T01:35:28;7.38;;;3.63;;
56051;SDS011;41919;42.648;23.384;2022-09-21T01:38:02;5.45;;;3.53;;
56051;SDS011;41919;42.648;23.384;2022-09-21T01:43:02;6.95;;;3.70;;
56051;SDS011;41919;42.648;23.384;2022-09-21T01:45:30;4.43;;;3.65;;
56051;SDS011;41919;42.648;23.384;2022-09-21T01:47:59;4.38;;;3.97;;
56051;SDS011;41919;42.648;23.384;2022-09-21T01:50:30;4.85;;;3.50;;
56051;SDS011;41919;42.648;23.384;2022-09-21T01:53:02;4.07;;;3.40;;
56051;SDS011;41919;42.648;23.384;2022-09-21T01:55:39;11.13;;;3.63;;
56051;SDS011;41919;42.648;23.384;2022-09-21T02:00:57;5.93;;;3.67;;
56051;SDS011;41919;42.648;23.384;2022-09-21T02:03:32;4.57;;;3.00;;
56051;SDS011;41919;42.648;23.384;2022-09-21T02:06:02;8.40;;;3.88;;
56051;SDS011;41919;42.648;23.384;2022-09-21T02:08:30;8.43;;;4.15;;
56051;SDS011;41919;42.648;23.384;2022-09-21T02:10:57;6.78;;;3.92;;
56051;SDS011;41919;42.648;23.384;2022-09-21T02:13:28;5.10;;;3.83;;
56051;SDS011;41919;42.648;23.384;2022-09-21T02:21:33;4.03;;;3.38;;
56051;SDS011;41919;42.648;23.384;2022-09-21T02:24:13;4.65;;;3.25;;
56051;SDS011;41919;42.648;23.384;2022-09-21T02:29:36;3.50;;;3.20;;
56051;SDS011;41919;42.648;23.384;2022-09-21T02:42:48;4.00;;;3.30;;
56051;SDS011;41919;42.648;23.384;2022-09-21T02:45:24;5.70;;;3.83;;
56051;SDS011;41919;42.648;23.384;2022-09-21T02:47:59;4.78;;;3.17;;
56051;SDS011;41919;42.648;23.384;2022-09-21T02:50:41;4.88;;;3.35;;
56051;SDS011;41919;42.648;23.384;2022-09-21T02:53:26;4.10;;;3.53;;
56051;SDS011;41919;42.648;23.384;2022-09-21T02:55:55;4.45;;;3.38;;
56051;SDS011;41919;42.648;23.384;2022-09-21T02:58:26;4.85;;;3.35;;
56051;SDS011;41919;42.648;23.384;2022-09-21T03:00:55;3.60;;;3.30;;
56051;SDS011;41919;42.648;23.384;2022-09-21T03:03:22;3.30;;;2.58;;
56051;SDS011;41919;42.648;23.384;2022-09-21T03:05:49;3.35;;;3.05;;
56051;SDS011;41919;42.648;23.384;2022-09-21T03:08:17;3.65;;;3.33;;
56051;SDS011;41919;42.648;23.384;2022-09-21T03:10:43;3.70;;;2.88;;
56051;SDS011;41919;42.648;23.384;2022-09-21T03:13:09;5.47;;;2.72;;
56051;SDS011;41919;42.648;23.384;2022-09-21T03:15:35;3.75;;;2.95;;
56051;SDS011;41919;42.648;23.384;2022-09-21T03:18:02;4.07;;;3.03;;
56051;SDS011;41919;42.648;23.384;2022-09-21T03:20:32;4.40;;;3.13;;
56051;SDS011;41919;42.648;23.384;2022-09-21T03:22:58;7.80;;;3.72;;
56051;SDS011;41919;42.648;23.384;2022-09-21T03:25:25;6.82;;;4.10;;
56051;SDS011;41919;42.648;23.384;2022-09-21T03:27:50;5.20;;;3.85;;
56051;SDS011;41919;42.648;23.384;2022-09-21T03:30:20;5.50;;;3.63;;
56051;SDS011;41919;42.648;23.384;2022-09-21T03:32:52;3.97;;;3.58;;
56051;SDS011;41919;42.648;23.384;2022-09-21T03:35:19;6.93;;;3.22;;
56051;SDS011;41919;42.648;23.384;2022-09-21T03:37:46;7.07;;;3.53;;
56051;SDS011;41919;42.648;23.384;2022-09-21T03:40:12;7.82;;;3.78;;
56051;SDS011;41919;42.648;23.384;2022-09-21T03:42:39;6.03;;;3.90;;
56051;SDS011;41919;42.648;23.384;2022-09-21T03:45:05;6.10;;;3.42;;
56051;SDS011;41919;42.648;23.384;2022-09-21T03:47:32;4.60;;;3.10;;
56051;SDS011;41919;42.648;23.384;2022-09-21T03:49:57;4.30;;;3.13;;
56051;SDS011;41919;42.648;23.384;2022-09-21T03:52:23;7.22;;;3.42;;
56051;SDS011;41919;42.648;23.384;2022-09-21T03:54:48;3.47;;;3.17;;
56051;SDS011;41919;42.648;23.384;2022-09-21T03:57:14;3.97;;;3.20;;
56051;SDS011;41919;42.648;23.384;2022-09-21T03:59:39;3.55;;;3.22;;
56051;SDS011;41919;42.648;23.384;2022-09-21T04:02:06;4.78;;;3.63;;
56051;SDS011;41919;42.648;23.384;2022-09-21T04:04:31;3.85;;;3.38;;
56051;SDS011;41919;42.648;23.384;2022-09-21T04:06:57;5.90;;;4.35;;
56051;SDS011;41919;42.648;23.384;2022-09-21T04:09:23;6.25;;;3.38;;
56051;SDS011;41919;42.648;23.384;2022-09-21T04:11:48;9.52;;;4.43;;
56051;SDS011;41919;42.648;23.384;2022-09-21T04:14:14;6.28;;;3.70;;
56051;SDS011;41919;42.648;23.384;2022-09-21T04:16:39;4.80;;;3.72;;
56051;SDS011;41919;42.648;23.384;2022-09-21T04:19:05;7.18;;;4.35;;
56051;SDS011;41919;42.648;23.384;2022-09-21T04:21:31;8.57;;;4.78;;
56051;SDS011;41919;42.648;23.384;2022-09-21T04:23:56;8.25;;;4.57;;
56051;SDS011;41919;42.648;23.384;2022-09-21T04:26:26;9.00;;;4.70;;
56051;SDS011;41919;42.648;23.384;2022-09-21T04:28:54;6.95;;;5.00;;
56051;SDS011;41919;42.648;23.384;2022-09-21T04:31:20;6.40;;;4.70;;
56051;SDS011;41919;42.648;23.384;2022-09-21T04:33:47;10.30;;;5.43;;
56051;SDS011;41919;42.648;23.384;2022-09-21T04:36:16;57.20;;;23.70;;
56051;SDS011;41919;42.648;23.384;2022-09-21T04:38:42;16.63;;;6.65;;
56051;SDS011;41919;42.648;23.384;2022-09-21T04:41:08;5.75;;;4.15;;
56051;SDS011;41919;42.648;23.384;2022-09-21T04:43:33;9.05;;;4.53;;
56051;SDS011;41919;42.648;23.384;2022-09-21T04:46:03;5.28;;;3.88;;
56051;SDS011;41919;42.648;23.384;2022-09-21T04:48:36;5.47;;;4.22;;
56051;SDS011;41919;42.648;23.384;2022-09-21T04:51:03;8.05;;;3.63;;
56051;SDS011;41919;42.648;23.384;2022-09-21T04:53:30;6.18;;;4.03;;
56051;SDS011;41919;42.648;23.384;2022-09-21T04:55:55;9.25;;;4.00;;
56051;SDS011;41919;42.648;23.384;2022-09-21T04:58:21;4.72;;;4.07;;
56051;SDS011;41919;42.648;23.384;2022-09-21T05:00:48;5.95;;;3.60;;
56051;SDS011;41919;42.648;23.384;2022-09-21T05:03:18;6.82;;;3.58;;
56051;SDS011;41919;42.648;23.384;2022-09-21T05:05:47;5.97;;;3.75;;
56051;SDS011;41919;42.648;23.384;2022-09-21T05:08:13;5.30;;;3.70;;
56051;SDS011;41919;42.648;23.384;2022-09-21T05:10:39;7.05;;;4.18;;
56051;SDS011;41919;42.648;23.384;2022-09-21T05:13:04;8.52;;;4.32;;
56051;SDS011;41919;42.648;23.384;2022-09-21T05:15:30;6.55;;;3.67;;
56051;SDS011;41919;42.648;23.384;2022-09-21T05:17:55;5.95;;;3.70;;
56051;SDS011;41919;42.648;23.384;2022-09-21T05:20:21;4.43;;;3.38;;
56051;SDS011;41919;42.648;23.384;2022-09-21T05:22:46;7.45;;;4.10;;
56051;SDS011;41919;42.648;23.384;2022-09-21T05:25:12;12.80;;;3.97;;
56051;SDS011;41919;42.648;23.384;2022-09-21T05:27:37;7.57;;;4.32;;
56051;SDS011;41919;42.648;23.384;2022-09-21T05:30:03;7.97;;;3.90;;
56051;SDS011;41919;42.648;23.384;2022-09-21T05:37:58;9.68;;;4.10;;
56051;SDS011;41919;42.648;23.384;2022-09-21T05:40:28;7.00;;;3.90;;
56051;SDS011;41919;42.648;23.384;2022-09-21T05:42:54;7.47;;;4.43;;
56051;SDS011;41919;42.648;23.384;2022-09-21T05:45:20;11.50;;;3.53;;
56051;SDS011;41919;42.648;23.384;2022-09-21T06:00:41;6.90;;;3.17;;
56051;SDS011;41919;42.648;23.384;2022-09-21T06:03:26;6.63;;;3.40;;
56051;SDS011;41919;42.648;23.384;2022-09-21T06:05:53;7.95;;;4.18;;
56051;SDS011;41919;42.648;23.384;2022-09-21T06:08:19;7.45;;;3.85;;
56051;SDS011;41919;42.648;23.384;2022-09-21T06:10:46;6.35;;;3.70;;
56051;SDS011;41919;42.648;23.384;2022-09-21T06:13:11;5.95;;;3.30;;
56051;SDS011;41919;42.648;23.384;2022-09-21T06:15:37;5.40;;;3.60;;
56051;SDS011;41919;42.648;23.384;2022-09-21T06:18:06;6.53;;;3.30;;
56051;SDS011;41919;42.648;23.384;2022-09-21T06:20:34;8.40;;;3.80;;
56051;SDS011;41919;42.648;23.384;2022-09-21T06:23:03;7.57;;;3.53;;
56051;SDS011;41919;42.648;23.384;2022-09-21T06:25:29;6.32;;;3.40;;
56051;SDS011;41919;42.648;23.384;2022-09-21T06:28:00;5.55;;;3.97;;
56051;SDS011;41919;42.648;23.384;2022-09-21T06:30:26;8.93;;;3.38;;
56051;SDS011;41919;42.648;23.384;2022-09-21T06:32:52;10.50;;;4.50;;
56051;SDS011;41919;42.648;23.384;2022-09-21T06:35:17;7.90;;;4.93;;
56051;SDS011;41919;42.648;23.384;2022-09-21T06:37:42;9.52;;;3.15;;
56051;SDS011;41919;42.648;23.384;2022-09-21T06:40:08;4.60;;;3.38;;
56051;SDS011;41919;42.648;23.384;2022-09-21T06:42:33;8.20;;;3.67;;
56051;SDS011;41919;42.648;23.384;2022-09-21T06:44:59;4.53;;;3.03;;
56051;SDS011;41919;42.648;23.384;2022-09-21T06:47:24;7.40;;;3.40;;
56051;SDS011;41919;42.648;23.384;2022-09-21T06:49:49;5.13;;;3.47;;
56051;SDS011;41919;42.648;23.384;2022-09-21T06:52:17;10.35;;;3.63;;
56051;SDS011;41919;42.648;23.384;2022-09-21T06:54:43;7.78;;;3.95;;
56051;SDS011;41919;42.648;23.384;2022-09-21T06:57:08;5.40;;;3.72;;
56051;SDS011;41919;42.648;23.384;2022-09-21T06:59:33;5.28;;;2.50;;
56051;SDS011;41919;42.648;23.384;2022-09-21T07:01:59;6.10;;;3.08;;
56051;SDS011;41919;42.648;23.384;2022-09-21T07:04:24;2.85;;;2.38;;
56051;SDS011;41919;42.648;23.384;2022-09-21T07:06:50;1.75;;;1.65;;
56051;SDS011;41919;42.648;23.384;2022-09-21T07:09:15;1.45;;;1.23;;
56051;SDS011;41919;42.648;23.384;2022-09-21T07:11:41;1.20;;;1.10;;
56051;SDS011;41919;42.648;23.384;2022-09-21T07:14:06;3.17;;;1.23;;
56051;SDS011;41919;42.648;23.384;2022-09-21T07:16:32;1.38;;;1.30;;
56051;SDS011;41919;42.648;23.384;2022-09-21T07:18:57;2.95;;;1.50;;
56051;SDS011;41919;42.648;23.384;2022-09-21T07:21:23;2.78;;;1.30;;
56051;SDS011;41919;42.648;23.384;2022-09-21T07:23:48;1.70;;;1.60;;
56051;SDS011;41919;42.648;23.384;2022-09-21T07:26:14;1.92;;;1.73;;
56051;SDS011;41919;42.648;23.384;2022-09-21T07:28:40;2.08;;;1.73;;
56051;SDS011;41919;42.648;23.384;2022-09-21T07:31:09;3.00;;;1.88;;
56051;SDS011;41919;42.648;23.384;2022-09-21T07:36:05;4.18;;;1.90;;
56051;SDS011;41919;42.648;23.384;2022-09-21T07:38:34;2.72;;;1.50;;
56051;SDS011;41919;42.648;23.384;2022-09-21T07:41:01;3.40;;;1.85;;
56051;SDS011;41919;42.648;23.384;2022-09-21T07:43:27;2.42;;;1.67;;
56051;SDS011;41919;42.648;23.384;2022-09-21T07:45:53;2.47;;;1.55;;
56051;SDS011;41919;42.648;23.384;2022-09-21T07:48:22;2.60;;;1.65;;
56051;SDS011;41919;42.648;23.384;2022-09-21T07:50:48;2.45;;;1.95;;
56051;SDS011;41919;42.648;23.384;2022-09-21T07:53:14;2.40;;;1.83;;
56051;SDS011;41919;42.648;23.384;2022-09-21T07:55:41;2.28;;;2.00;;
56051;SDS011;41919;42.648;23.384;2022-09-21T07:58:07;2.33;;;1.77;;
56051;SDS011;41919;42.648;23.384;2022-09-21T08:00:51;2.58;;;1.70;;
56051;SDS011;41919;42.648;23.384;2022-09-21T08:03:16;2.17;;;1.95;;
56051;SDS011;41919;42.648;23.384;2022-09-21T08:05:42;2.17;;;1.48;;
56051;SDS011;41919;42.648;23.384;2022-09-21T08:08:07;1.60;;;1.48;;
56051;SDS011;41919;42.648;23.384;2022-09-21T08:10:34;1.98;;;1.50;;
56051;SDS011;41919;42.648;23.384;2022-09-21T08:13:00;2.10;;;1.50;;
56051;SDS011;41919;42.648;23.384;2022-09-21T08:15:26;4.50;;;1.77;;
56051;SDS011;41919;42.648;23.384;2022-09-21T08:17:52;2.92;;;1.50;;
56051;SDS011;41919;42.648;23.384;2022-09-21T08:20:18;3.03;;;1.75;;
56051;SDS011;41919;42.648;23.384;2022-09-21T08:28:39;2.25;;;1.40;;
56051;SDS011;41919;42.648;23.384;2022-09-21T08:31:05;3.92;;;1.48;;
56051;SDS011;41919;42.648;23.384;2022-09-21T08:33:32;2.65;;;1.17;;
56051;SDS011;41919;42.648;23.384;2022-09-21T08:35:59;1.80;;;1.70;;
56051;SDS011;41919;42.648;23.384;2022-09-21T08:38:26;3.90;;;1.88;;
56051;SDS011;41919;42.648;23.384;2022-09-21T08:40:56;2.35;;;1.60;;
56051;SDS011;41919;42.648;23.384;2022-09-21T08:43:28;3.72;;;1.60;;
56051;SDS011;41919;42.648;23.384;2022-09-21T08:46:02;2.00;;;1.80;;
56051;SDS011;41919;42.648;23.384;2022-09-21T08:48:33;4.80;;;1.50;;
56051;SDS011;41919;42.648;23.384;2022-09-21T08:51:05;1.55;;;1.45;;
56051;SDS011;41919;42.648;23.384;2022-09-21T08:53:38;3.72;;;1.35;;
56051;SDS011;41919;42.648;23.384;2022-09-21T08:56:09;2.45;;;1.30;;
56051;SDS011;41919;42.648;23.384;2022-09-21T08:58:39;1.40;;;1.30;;
56051;SDS011;41919;42.648;23.384;2022-09-21T09:21:00;1.80;;;1.23;;
56051;SDS011;41919;42.648;23.384;2022-09-21T09:23:34;1.50;;;1.40;;
56051;SDS011;41919;42.648;23.384;2022-09-21T09:26:06;1.20;;;1.20;;
56051;SDS011;41919;42.648;23.384;2022-09-21T09:28:52;1.33;;;1.20;;
56051;SDS011;41919;42.648;23.384;2022-09-21T09:31:32;2.60;;;1.10;;
56051;SDS011;41919;42.648;23.384;2022-09-21T09:36:24;1.95;;;1.30;;
56051;SDS011;41919;42.648;23.384;2022-09-21T09:38:57;1.60;;;1.20;;
56051;SDS011;41919;42.648;23.384;2022-09-21T09:50:19;1.80;;;1.10;;
56051;SDS011;41919;42.648;23.384;2022-09-21T09:52:51;1.73;;;1.30;;
56051;SDS011;41919;42.648;23.384;2022-09-21T09:55:23;1.95;;;1.15;;
56051;SDS011;41919;42.648;23.384;2022-09-21T10:00:19;2.20;;;1.30;;
56051;SDS011;41919;42.648;23.384;2022-09-21T10:05:22;1.10;;;1.00;;
56051;SDS011;41919;42.648;23.384;2022-09-21T10:07:49;1.13;;;1.02;;
56051;SDS011;41919;42.648;23.384;2022-09-21T10:12:53;0.82;;;0.82;;
56051;SDS011;41919;42.648;23.384;2022-09-21T10:15:24;0.80;;;0.80;;
56051;SDS011;41919;42.648;23.384;2022-09-21T10:17:56;1.10;;;1.00;;
56051;SDS011;41919;42.648;23.384;2022-09-21T10:20:38;1.92;;;1.00;;
56051;SDS011;41919;42.648;23.384;2022-09-21T10:23:26;0.85;;;0.85;;
56051;SDS011;41919;42.648;23.384;2022-09-21T10:28:34;1.00;;;0.80;;
56051;SDS011;41919;42.648;23.384;2022-09-21T10:31:11;0.80;;;0.80;;
56051;SDS011;41919;42.648;23.384;2022-09-21T10:33:53;1.17;;;1.00;;
56051;SDS011;41919;42.648;23.384;2022-09-21T10:36:29;3.10;;;0.88;;
56051;SDS011;41919;42.648;23.384;2022-09-21T10:41:53;3.33;;;0.90;;
56051;SDS011;41919;42.648;23.384;2022-09-21T10:44:21;3.80;;;1.10;;
56051;SDS011;41919;42.648;23.384;2022-09-21T10:46:49;1.90;;;0.90;;
56051;SDS011;41919;42.648;23.384;2022-09-21T10:49:18;1.02;;;0.75;;
56051;SDS011;41919;42.648;23.384;2022-09-21T10:55:01;0.88;;;0.80;;
56051;SDS011;41919;42.648;23.384;2022-09-21T10:57:27;1.50;;;0.70;;
56051;SDS011;41919;42.648;23.384;2022-09-21T10:59:54;0.80;;;0.80;;
56051;SDS011;41919;42.648;23.384;2022-09-21T11:07:29;1.35;;;1.08;;
56051;SDS011;41919;42.648;23.384;2022-09-21T11:10:05;0.60;;;0.60;;
56051;SDS011;41919;42.648;23.384;2022-09-21T11:18:07;1.55;;;0.93;;
56051;SDS011;41919;42.648;23.384;2022-09-21T11:45:00;0.75;;;0.75;;
56051;SDS011;41919;42.648;23.384;2022-09-21T11:48:31;1.00;;;0.77;;
56051;SDS011;41919;42.648;23.384;2022-09-21T11:50:56;2.38;;;0.70;;
56051;SDS011;41919;42.648;23.384;2022-09-21T11:54:08;0.93;;;0.80;;
56051;SDS011;41919;42.648;23.384;2022-09-21T11:56:23;0.80;;;0.80;;
56051;SDS011;41919;42.648;23.384;2022-09-21T12:05:05;2.13;;;0.45;;
56051;SDS011;41919;42.648;23.384;2022-09-21T12:13:34;1.98;;;1.05;;
56051;SDS011;41919;42.648;23.384;2022-09-21T12:16:04;1.13;;;0.93;;
56051;SDS011;41919;42.648;23.384;2022-09-21T12:18:47;0.80;;;0.80;;
56051;SDS011;41919;42.648;23.384;2022-09-21T12:21:29;1.20;;;0.80;;
56051;SDS011;41919;42.648;23.384;2022-09-21T12:24:00;0.88;;;0.88;;
56051;SDS011;41919;42.648;23.384;2022-09-21T12:26:35;0.82;;;0.70;;
56051;SDS011;41919;42.648;23.384;2022-09-21T12:29:17;0.60;;;0.60;;
56051;SDS011;41919;42.648;23.384;2022-09-21T12:32:01;0.70;;;0.50;;
56051;SDS011;41919;42.648;23.384;2022-09-21T12:34:33;1.75;;;0.60;;
56051;SDS011;41919;42.648;23.384;2022-09-21T12:39:41;0.63;;;0.63;;
56051;SDS011;41919;42.648;23.384;2022-09-21T12:42:24;0.40;;;0.40;;
56051;SDS011;41919;42.648;23.384;2022-09-21T12:44:55;1.23;;;0.60;;
56051;SDS011;41919;42.648;23.384;2022-09-21T12:47:47;0.50;;;0.50;;
56051;SDS011;41919;42.648;23.384;2022-09-21T12:50:26;0.50;;;0.50;;
56051;SDS011;41919;42.648;23.384;2022-09-21T12:52:55;1.08;;;0.70;;
56051;SDS011;41919;42.648;23.384;2022-09-21T12:55:43;0.55;;;0.55;;
56051;SDS011;41919;42.648;23.384;2022-09-21T12:58:29;3.63;;;0.80;;
56051;SDS011;41919;42.648;23.384;2022-09-21T13:01:25;0.75;;;0.75;;
56051;SDS011;41919;42.648;23.384;2022-09-21T13:04:10;2.65;;;0.90;;
56051;SDS011;41919;42.648;23.384;2022-09-21T13:06:47;0.80;;;0.75;;
56051;SDS011;41919;42.648;23.384;2022-09-21T13:09:35;1.67;;;0.80;;
56051;SDS011;41919;42.648;23.384;2022-09-21T13:12:14;6.00;;;0.85;;
56051;SDS011;41919;42.648;23.384;2022-09-21T13:14:44;1.88;;;0.60;;
56051;SDS011;41919;42.648;23.384;2022-09-21T13:17:22;0.88;;;0.73;;
56051;SDS011;41919;42.648;23.384;2022-09-21T13:20:03;1.40;;;0.63;;
56051;SDS011;41919;42.648;23.384;2022-09-21T13:22:39;0.80;;;0.80;;
56051;SDS011;41919;42.648;23.384;2022-09-21T13:30:35;0.60;;;0.50;;
56051;SDS011;41919;42.648;23.384;2022-09-21T13:35:50;0.60;;;0.60;;
56051;SDS011;41919;42.648;23.384;2022-09-21T13:38:31;0.80;;;0.70;;
56051;SDS011;41919;42.648;23.384;2022-09-21T13:43:58;0.40;;;0.40;;
56051;SDS011;41919;42.648;23.384;2022-09-21T14:02:40;0.77;;;0.57;;
56051;SDS011;41919;42.648;23.384;2022-09-21T14:07:57;1.75;;;0.60;;
56051;SDS011;41919;42.648;23.384;2022-09-21T14:10:27;1.27;;;0.70;;
56051;SDS011;41919;42.648;23.384;2022-09-21T14:12:56;0.65;;;0.60;;
56051;SDS011;41919;42.648;23.384;2022-09-21T14:20:36;3.40;;;1.63;;
56051;SDS011;41919;42.648;23.384;2022-09-21T14:24:06;0.82;;;0.80;;
56051;SDS011;41919;42.648;23.384;2022-09-21T14:28:43;1.05;;;1.02;;
56051;SDS011;41919;42.648;23.384;2022-09-21T14:31:25;3.58;;;1.50;;
56051;SDS011;41919;42.648;23.384;2022-09-21T14:33:56;4.32;;;2.00;;
56051;SDS011;41919;42.648;23.384;2022-09-21T14:36:42;3.78;;;1.77;;
56051;SDS011;41919;42.648;23.384;2022-09-21T14:39:21;1.40;;;1.30;;
56051;SDS011;41919;42.648;23.384;2022-09-21T14:41:54;2.03;;;1.42;;
56051;SDS011;41919;42.648;23.384;2022-09-21T14:44:24;3.17;;;2.08;;
56051;SDS011;41919;42.648;23.384;2022-09-21T14:49:52;2.05;;;1.65;;
56051;SDS011;41919;42.648;23.384;2022-09-21T14:52:58;4.40;;;1.88;;
56051;SDS011;41919;42.648;23.384;2022-09-21T14:58:30;2.53;;;2.10;;
56051;SDS011;41919;42.648;23.384;2022-09-21T15:12:44;1.65;;;1.55;;
56051;SDS011;41919;42.648;23.384;2022-09-21T15:17:58;1.35;;;1.20;;
56051;SDS011;41919;42.648;23.384;2022-09-21T15:20:26;2.63;;;1.50;;
56051;SDS011;41919;42.648;23.384;2022-09-21T15:22:54;2.42;;;1.60;;
56051;SDS011;41919;42.648;23.384;2022-09-21T15:25:20;1.80;;;1.70;;
56051;SDS011;41919;42.648;23.384;2022-09-21T15:27:47;2.58;;;1.98;;
56051;SDS011;41919;42.648;23.384;2022-09-21T15:30:18;2.85;;;1.80;;
56051;SDS011;41919;42.648;23.384;2022-09-21T15:32:46;7.47;;;2.10;;
56051;SDS011;41919;42.648;23.384;2022-09-21T15:35:18;1.90;;;1.70;;
56051;SDS011;41919;42.648;23.384;2022-09-21T15:37:45;3.05;;;1.80;;
56051;SDS011;41919;42.648;23.384;2022-09-21T15:43:35;1.45;;;1.35;;
56051;SDS011;41919;42.648;23.384;2022-09-21T15:45:47;1.80;;;1.70;;
56051;SDS011;41919;42.648;23.384;2022-09-21T15:48:18;2.50;;;2.20;;
56051;SDS011;41919;42.648;23.384;2022-09-21T15:50:46;1.58;;;1.48;;
56051;SDS011;41919;42.648;23.384;2022-09-21T15:53:33;2.03;;;1.73;;
56051;SDS011;41919;42.648;23.384;2022-09-21T15:56:03;1.52;;;1.42;;
56051;SDS011;41919;42.648;23.384;2022-09-21T15:58:34;2.20;;;1.27;;
56051;SDS011;41919;42.648;23.384;2022-09-21T16:01:11;2.85;;;1.15;;
56051;SDS011;41919;42.648;23.384;2022-09-21T16:03:39;1.38;;;1.10;;
56051;SDS011;41919;42.648;23.384;2022-09-21T16:08:59;1.75;;;1.33;;
56051;SDS011;41919;42.648;23.384;2022-09-21T16:11:53;1.52;;;1.42;;
56051;SDS011;41919;42.648;23.384;2022-09-21T16:14:21;5.00;;;2.33;;
56051;SDS011;41919;42.648;23.384;2022-09-21T16:19:44;1.77;;;1.30;;
56051;SDS011;41919;42.648;23.384;2022-09-21T16:25:13;2.72;;;1.35;;
56051;SDS011;41919;42.648;23.384;2022-09-21T16:30:41;1.23;;;1.13;;
56051;SDS011;41919;42.648;23.384;2022-09-21T16:38:44;1.92;;;1.65;;
56051;SDS011;41919;42.648;23.384;2022-09-21T16:41:19;1.95;;;1.58;;
56051;SDS011;41919;42.648;23.384;2022-09-21T16:43:46;1.70;;;1.50;;
56051;SDS011;41919;42.648;23.384;2022-09-21T16:46:14;2.78;;;1.80;;
56051;SDS011;41919;42.648;23.384;2022-09-21T16:48:40;2.60;;;1.70;;
56051;SDS011;41919;42.648;23.384;2022-09-21T16:51:12;3.25;;;1.90;;
56051;SDS011;41919;42.648;23.384;2022-09-21T16:53:39;1.70;;;1.35;;
56051;SDS011;41919;42.648;23.384;2022-09-21T16:56:08;2.30;;;1.60;;
56051;SDS011;41919;42.648;23.384;2022-09-21T16:58:38;2.42;;;1.75;;
56051;SDS011;41919;42.648;23.384;2022-09-21T17:01:06;3.25;;;1.83;;
56051;SDS011;41919;42.648;23.384;2022-09-21T17:03:34;6.25;;;1.90;;
56051;SDS011;41919;42.648;23.384;2022-09-21T17:06:00;5.25;;;1.88;;
56051;SDS011;41919;42.648;23.384;2022-09-21T17:08:26;1.67;;;1.58;;
56051;SDS011;41919;42.648;23.384;2022-09-21T17:10:54;3.00;;;2.03;;
56051;SDS011;41919;42.648;23.384;2022-09-21T17:13:19;3.13;;;1.85;;
56051;SDS011;41919;42.648;23.384;2022-09-21T17:15:45;3.58;;;2.10;;
56051;SDS011;41919;42.648;23.384;2022-09-21T17:18:12;3.17;;;1.95;;
56051;SDS011;41919;42.648;23.384;2022-09-21T17:20:39;2.45;;;1.42;;
56051;SDS011;41919;42.648;23.384;2022-09-21T17:23:06;2.53;;;1.67;;
56051;SDS011;41919;42.648;23.384;2022-09-21T17:25:32;3.50;;;2.35;;
56051;SDS011;41919;42.648;23.384;2022-09-21T17:27:59;4.85;;;2.20;;
56051;SDS011;41919;42.648;23.384;2022-09-21T17:30:29;4.68;;;2.00;;
56051;SDS011;41919;42.648;23.384;2022-09-21T17:32:55;3.05;;;2.20;;
56051;SDS011;41919;42.648;23.384;2022-09-21T17:37:59;3.45;;;2.15;;
56051;SDS011;41919;42.648;23.384;2022-09-21T17:40:25;4.68;;;2.45;;
56051;SDS011;41919;42.648;23.384;2022-09-21T17:42:51;3.72;;;3.17;;
56051;SDS011;41919;42.648;23.384;2022-09-21T17:45:37;9.15;;;3.60;;
56051;SDS011;41919;42.648;23.384;2022-09-21T17:48:11;6.13;;;3.50;;
56051;SDS011;41919;42.648;23.384;2022-09-21T17:50:42;7.22;;;4.20;;
56051;SDS011;41919;42.648;23.384;2022-09-21T17:53:07;5.43;;;3.95;;
56051;SDS011;41919;42.648;23.384;2022-09-21T17:58:38;7.25;;;3.75;;
56051;SDS011;41919;42.648;23.384;2022-09-21T18:01:16;4.88;;;3.90;;
56051;SDS011;41919;42.648;23.384;2022-09-21T18:03:55;5.90;;;4.07;;
56051;SDS011;41919;42.648;23.384;2022-09-21T18:06:21;7.25;;;4.70;;
56051;SDS011;41919;42.648;23.384;2022-09-21T18:08:47;4.85;;;3.92;;
56051;SDS011;41919;42.648;23.384;2022-09-21T18:16:41;6.78;;;3.80;;
56051;SDS011;41919;42.648;23.384;2022-09-21T18:21:43;5.78;;;4.28;;
56051;SDS011;41919;42.648;23.384;2022-09-21T18:24:24;4.57;;;3.40;;
56051;SDS011;41919;42.648;23.384;2022-09-21T18:26:51;5.22;;;3.80;;
56051;SDS011;41919;42.648;23.384;2022-09-21T18:32:06;5.03;;;3.75;;
56051;SDS011;41919;42.648;23.384;2022-09-21T18:35:01;4.80;;;3.20;;
56051;SDS011;41919;42.648;23.384;2022-09-21T18:48:49;4.90;;;3.47;;
56051;SDS011;41919;42.648;23.384;2022-09-21T18:51:23;4.57;;;3.80;;
56051;SDS011;41919;42.648;23.384;2022-09-21T18:53:55;5.28;;;3.97;;
56051;SDS011;41919;42.648;23.384;2022-09-21T18:56:22;6.90;;;4.57;;
56051;SDS011;41919;42.648;23.384;2022-09-21T18:58:53;5.45;;;4.00;;
56051;SDS011;41919;42.648;23.384;2022-09-21T19:01:22;5.72;;;4.15;;
56051;SDS011;41919;42.648;23.384;2022-09-21T19:03:48;5.50;;;4.47;;
56051;SDS011;41919;42.648;23.384;2022-09-21T19:19:48;6.10;;;4.72;;
56051;SDS011;41919;42.648;23.384;2022-09-21T19:22:29;7.50;;;4.53;;
56051;SDS011;41919;42.648;23.384;2022-09-21T19:27:51;16.75;;;8.38;;
56051;SDS011;41919;42.648;23.384;2022-09-21T19:30:18;6.88;;;4.90;;
56051;SDS011;41919;42.648;23.384;2022-09-21T19:32:47;7.57;;;4.70;;
56051;SDS011;41919;42.648;23.384;2022-09-21T19:35:18;5.95;;;4.72;;
56051;SDS011;41919;42.648;23.384;2022-09-21T19:37:47;7.97;;;4.82;;
56051;SDS011;41919;42.648;23.384;2022-09-21T19:40:14;7.85;;;5.22;;